»·PEaware :: WAT295 KCGX-KFLD

WAT295 :: KCGX-KFLD

FLIGHT INFORMATION

Flight Status: Arrived
Operator:
Walker Air Transport
More flights by this operator :: More flights under this callsign
Pilot: Corentin D. (28157)
Aircraft: BEECH AIRCRAFT PREMIER
(PRM1)
More flights by this aircraft type
Origin: KCGX Meigs
United States
Destination: KFLD Fond Du Lac Co
United States
More flights between these airports :: More routes between these airports
Route: BAE
File this flight plan on PilotEdge
Remarks:
Altitude:
(Current/Filed)
16,000ft
Speed:
(Current/Filed)
270kts
Departed: 23-Jul-20 06:30 AM
Arrived: 23-Jul-20 07:04 AM
Distance/Time
Traveled:
121nm/0:34
Distance/Time
To Go:
Arrived

Flight Plot

Page will automatically refresh every two minutes.

Flight plan parsing failed; only flown route is shown


Map Options




Map Legend


Flown Route
Filed Route
Departure Airport
Arrival Airport
Navaid (VOR, NDB)
Fix

Horizontal Profiles

Position Reports

Time Latitude Longitude Heading Altitude Ground
Speed
23-Jul-20 06:05 41.854128 -87.608805 87 589ft 0kts
23-Jul-20 06:06 41.854128 -87.608805 87 589ft 0kts
23-Jul-20 06:07 41.854128 -87.608805 87 589ft 0kts
23-Jul-20 06:08 41.854128 -87.608805 87 589ft 0kts
23-Jul-20 06:09 41.854128 -87.608805 87 589ft 0kts
23-Jul-20 06:10 41.854128 -87.608805 87 589ft 0kts
23-Jul-20 06:11 41.854128 -87.608805 87 589ft 0kts
23-Jul-20 06:12 41.854128 -87.608805 87 589ft 0kts
23-Jul-20 06:13 41.854128 -87.608805 87 589ft 0kts
23-Jul-20 06:14 41.854128 -87.608805 87 589ft 0kts
23-Jul-20 06:15 41.854128 -87.608805 87 589ft 0kts
23-Jul-20 06:16 41.854128 -87.608805 87 589ft 0kts
23-Jul-20 06:17 41.854128 -87.608805 87 589ft 0kts
23-Jul-20 06:18 41.854128 -87.608805 87 589ft 0kts
23-Jul-20 06:19 41.854128 -87.608805 87 589ft 0kts
23-Jul-20 06:20 41.854128 -87.608805 87 589ft 0kts
23-Jul-20 06:21 41.854128 -87.608805 87 589ft 0kts
23-Jul-20 06:22 41.854128 -87.608805 87 589ft 0kts
23-Jul-20 06:23 41.854128 -87.608805 87 589ft 0kts
23-Jul-20 06:24 41.854128 -87.608805 87 589ft 0kts
23-Jul-20 06:25 41.854128 -87.608805 87 589ft 0kts
23-Jul-20 06:26 41.854128 -87.608805 87 589ft 0kts
23-Jul-20 06:27 41.854128 -87.608802 90 589ft 0kts
23-Jul-20 06:28 41.854242 -87.607577 357 589ft 10kts
23-Jul-20 06:29 41.877587 -87.603429 39 1132ft 171kts
23-Jul-20 06:30 41.926245 -87.607411 345 3149ft 193kts
23-Jul-20 06:31 41.981104 -87.594707 20 3228ft 211kts
23-Jul-20 06:32 42.036449 -87.579004 316 3252ft 207kts
23-Jul-20 06:33 42.078315 -87.631045 327 3236ft 205kts
23-Jul-20 06:34 42.128767 -87.667753 332 3235ft 204kts
23-Jul-20 06:35 42.178710 -87.701690 332 3232ft 204kts
23-Jul-20 06:37 42.229604 -87.736328 332 3231ft 205kts
23-Jul-20 06:38 42.281137 -87.771476 333 2998ft 201kts
23-Jul-20 06:39 42.330597 -87.805267 333 2998ft 198kts
23-Jul-20 06:40 42.380455 -87.839404 333 2997ft 205kts
23-Jul-20 06:41 42.430357 -87.871568 340 4275ft 188kts
23-Jul-20 06:42 42.480955 -87.894481 340 6308ft 201kts
23-Jul-20 06:43 42.535653 -87.919154 339 7983ft 233kts
23-Jul-20 06:44 42.599756 -87.948153 339 8000ft 270kts
23-Jul-20 06:45 42.671886 -87.980718 339 8001ft 268kts
23-Jul-20 06:46 42.739348 -88.011318 339 8002ft 267kts
23-Jul-20 06:47 42.811515 -88.044142 339 8000ft 266kts
23-Jul-20 06:48 42.881851 -88.076210 340 7998ft 264kts
23-Jul-20 06:49 42.952032 -88.108288 340 7999ft 264kts
23-Jul-20 06:49 43.010439 -88.135043 340 8000ft 265kts
23-Jul-20 06:51 43.090092 -88.171616 340 8002ft 266kts
23-Jul-20 06:52 43.160996 -88.204253 340 8005ft 267kts
23-Jul-20 06:53 43.230006 -88.236098 340 8007ft 267kts
23-Jul-20 06:53 43.289293 -88.263516 341 8012ft 266kts
23-Jul-20 06:55 43.362513 -88.321127 317 8016ft 264kts
23-Jul-20 06:56 43.414183 -88.391972 316 8022ft 260kts
23-Jul-20 06:56 43.456974 -88.450879 316 8027ft 259kts
23-Jul-20 06:57 43.520165 -88.486169 358 7044ft 248kts
23-Jul-20 06:58 43.584893 -88.486172 0 4843ft 216kts
23-Jul-20 06:59 43.643147 -88.486245 1 3195ft 208kts
23-Jul-20 07:00 43.694382 -88.486240 3 2140ft 152kts
23-Jul-20 07:01 43.729712 -88.486446 4 1322ft 124kts
23-Jul-20 07:02 43.763177 -88.486176 6 791ft 104kts
23-Jul-20 07:03 43.770384 -88.484623 88 788ft 0kts
23-Jul-20 07:04 43.770384 -88.484623 88 788ft 0kts

Navigation Log

Ident Type
Flight plan parsing failed, navigation log unavailable